Marshalltown, Iowa
Current Conditions -  °F | °C
As of 9:53 PM on Wednesday 22 Oct 2014 (Local Time) from KMIW Reporting Station
Few Clouds Few Clouds  
Wind Chill: 55°   Ceiling: Unl
Heat Index: 55°   Visibility: 10mi
Dew Point: 41°   Wind: 15mph
Humidity: 59%   Direction: 150°SSE
Pressure: 30.13"   Gusts: NA
Location:  42.05°N, 92.91°W
Report Text: KMIW 230253Z AUTO 15013KT 10SM FEW060 13/05 A3013 RMK AO2 SLP205 T01280050 58002
Loading
Personal Weather Stations






























Interactive Weather Map New forecast layout! Learn more

10-Day Weather Forecast

Advertisements
Track Severe Weather on mobile